WetterOnline ( https://www.wetteronline.de )

Wetter aktuell Hagebök

Aktuelles Wetter: Pelzerhaken/Neustadt i.H. (2m)

6-stündlich | Neueste Meldungen
Ortszeit Temperatur Wetter
Mi, 12.08. 20:00 21.6° C wolkenlos
Mi, 12.08. 14:00 23.2° C leicht bewölkt
Mi, 12.08. 8:00 19.6° C fast wolkenlos
Mi, 12.08. 2:00 19.7° C wolkenlos
Di, 11.08. 20:00 22.0° C wolkenlos
Di, 11.08. 14:00 24.8° C wolkenlos
Di, 11.08. 8:00 20.8° C fast wolkenlos
Di, 11.08. 2:00 21.0° C wolkenlos
Ortszeit Temperatur Wetter
Mi, 12.08. 20:30 21.2° C leicht bewölkt
Mi, 12.08. 20:20 21.2° C leicht bewölkt
Mi, 12.08. 20:10 21.2° C wolkenlos
Mi, 12.08. 20:00 21.6° C wolkenlos
Mi, 12.08. 19:50 21.6° C wolkenlos
Mi, 12.08. 19:40 21.7° C wolkenlos
Mi, 12.08. 19:30 21.7° C leicht bewölkt
Mi, 12.08. 19:00 22.1° C wolkig
Mi, 12.08. 18:30 22.3° C leicht bewölkt
Mi, 12.08. 18:00 22.7° C leicht bewölkt
Mi, 12.08. 17:30 23.1° C wolkenlos
Ortszeit Relative Feuchte Sichtweite
Mi, 12.08. 20:00 78% 40 km
Mi, 12.08. 14:00 71% 35 km
Mi, 12.08. 8:00 79% 45 km
Mi, 12.08. 2:00 77% 50 km
Di, 11.08. 20:00 77% 40 km
Di, 11.08. 14:00 69% 40 km
Di, 11.08. 8:00 89% 35 km
Di, 11.08. 2:00 89% 26 km
Ortszeit Relative Feuchte Sichtweite
Mi, 12.08. 20:30 80% 40 km
Mi, 12.08. 20:20 80% -
Mi, 12.08. 20:10 80% -
Mi, 12.08. 20:00 78% 40 km
Mi, 12.08. 19:50 78% -
Mi, 12.08. 19:40 76% -
Mi, 12.08. 19:30 75% 35 km
Mi, 12.08. 19:00 73% 30 km
Mi, 12.08. 18:30 72% 35 km
Mi, 12.08. 18:00 71% 40 km
Mi, 12.08. 17:30 69% 35 km
Ortszeit Niederschlagsmenge Niederschlagsart
Mi, 12.08. 20:00 0.0 l/m2 in 12 Std. -
Mi, 12.08. 14:00 0.0 l/m2 in 6 Std. -
Mi, 12.08. 8:00 0.0 l/m2 in 12 Std. -
Mi, 12.08. 2:00 0.0 l/m2 in 6 Std. -
Di, 11.08. 20:00 0.0 l/m2 in 12 Std. -
Di, 11.08. 14:00 0.0 l/m2 in 6 Std. -
Di, 11.08. 8:00 0.0 l/m2 in 12 Std. -
Di, 11.08. 2:00 0.0 l/m2 in 6 Std. -
Ortszeit Niederschlagsmenge Niederschlagsart
Mi, 12.08. 20:30 0.0 l/m2 in 1 Std. -
Mi, 12.08. 20:20 keine Meldung -
Mi, 12.08. 20:10 keine Meldung -
Mi, 12.08. 20:00 0.0 l/m2 in 1 Std. -
Mi, 12.08. 19:50 keine Meldung -
Mi, 12.08. 19:40 keine Meldung -
Mi, 12.08. 19:30 0.0 l/m2 in 1 Std. -
Mi, 12.08. 19:00 0.0 l/m2 in 1 Std. -
Mi, 12.08. 18:30 0.0 l/m2 in 1 Std. -
Mi, 12.08. 18:00 0.0 l/m2 in 1 Std. -
Mi, 12.08. 17:30 0.0 l/m2 in 1 Std. -
Ortszeit Stärke Spitze Richtung
km/h Bft. km/h Grad Sektor
Mi, 12.08. 20:00 24 4 41 40° NO
Mi, 12.08. 14:00 18 3 36 50° NO
Mi, 12.08. 8:00 19 3 31 80° O
Mi, 12.08. 2:00 25 4 43 80° O
Di, 11.08. 20:00 22 4 43 50° NO
Di, 11.08. 14:00 18 3 32 50° NO
Di, 11.08. 8:00 14 3 32 60° NO
Di, 11.08. 2:00 19 3 33 60° NO
Ortszeit Stärke Spitze Richtung
km/h Bft. km/h Grad Sektor
Mi, 12.08. 20:30 22 4 35 40° NO
Mi, 12.08. 20:20 22 4 - 40° NO
Mi, 12.08. 20:10 22 4 - 50° NO
Mi, 12.08. 20:00 24 4 41 40° NO
Mi, 12.08. 19:50 24 4 - 40° NO
Mi, 12.08. 19:40 25 4 - 40° NO
Mi, 12.08. 19:30 26 4 41 40° NO
Mi, 12.08. 19:00 26 4 41 50° NO
Mi, 12.08. 18:30 26 4 41 40° NO
Mi, 12.08. 18:00 22 4 36 40° NO
Mi, 12.08. 17:30 25 4 36 40° NO
Ortszeit Untergrenze Bedeckung Gattung
total tief tief mittel hoch
Mi, 12.08. 20:00 - 0/8 0/8 - - -
Mi, 12.08. 14:00 10500 m 5/8 0/8 - - -
Mi, 12.08. 8:00 10500 m 2/8 0/8 - - -
Mi, 12.08. 2:00 - 0/8 0/8 - - -
Di, 11.08. 20:00 - 0/8 0/8 - - -
Di, 11.08. 14:00 - 0/8 0/8 - - -
Di, 11.08. 8:00 210 m 1/8 1/8 - - -
Di, 11.08. 2:00 - 0/8 0/8 - - -
Ortszeit Bedeckungsgrad in Achtel und Wolkenuntergrenze
Mi, 12.08. 20:30 3(9000m)
Mi, 12.08. 20:20 3(9000m)
Mi, 12.08. 20:10 keine Wolken
Mi, 12.08. 20:00 keine Wolken
Mi, 12.08. 19:50 keine Wolken
Mi, 12.08. 19:40 keine Wolken
Mi, 12.08. 19:30 4(10500m)
Mi, 12.08. 19:00 8(10500m) 6(10500m)
Mi, 12.08. 18:30 4(10500m)
Mi, 12.08. 18:00 3(10500m)
Mi, 12.08. 17:30 keine Wolken
Ortszeit Luftdruck NN (hPa) Tendenz (hPa in 3 Std.)
Mi, 12.08. 20:00 1018 - 0,8
Mi, 12.08. 14:00 1020 - 0,4
Mi, 12.08. 8:00 1021 0,0
Mi, 12.08. 2:00 1022 + 0,3
Di, 11.08. 20:00 1021 - 0,3
Di, 11.08. 14:00 1022 - 0,1
Di, 11.08. 8:00 1021 + 0,1
Di, 11.08. 2:00 1021 + 1,4
Ortszeit Luftdruck NN (hPa) Tendenz (hPa in 3 Std.)
Mi, 12.08. 20:30 1018 - 0,9
Mi, 12.08. 20:20 1018 keine Meldung
Mi, 12.08. 20:10 1018 keine Meldung
Mi, 12.08. 20:00 1018 - 0,8
Mi, 12.08. 19:50 1018 keine Meldung
Mi, 12.08. 19:40 1018 keine Meldung
Mi, 12.08. 19:30 1018 - 1,1
Mi, 12.08. 19:00 1019 - 1,0
Mi, 12.08. 18:30 1019 - 1,1
Mi, 12.08. 18:00 1019 - 1,0
Mi, 12.08. 17:30 1019 - 1,0
Ortszeit Schneehöhe (cm)
Mi, 12.08. 20:00 0
Mi, 12.08. 14:00 0
Mi, 12.08. 8:00 0
Mi, 12.08. 2:00 0
Di, 11.08. 20:00 0
Di, 11.08. 14:00 0
Di, 11.08. 8:00 0
Di, 11.08. 2:00 0
Ortszeit Schneehöhe (cm)
Mi, 12.08. 20:30 0
Mi, 12.08. 20:20 0
Mi, 12.08. 20:10 0
Mi, 12.08. 20:00 0
Mi, 12.08. 19:50 0
Mi, 12.08. 19:40 0
Mi, 12.08. 19:30 0
Mi, 12.08. 19:00 0
Mi, 12.08. 18:30 0
Mi, 12.08. 18:00 0
Mi, 12.08. 17:30 0
Link zu dieser Seite / Seite empfehlen

Das Wetter in ...